Terminal Aerodrome Forecast
Issued by NWS

Home | Current Version | Previous Version | Text Only | Print | Product List | Glossary On
Versions: 1 2 3 4 5 6 7 8 9 10 11 12 13 14 15 16
559
FTUS44 KEPZ 260532
TAFLRU
TAF
KLRU 260532Z 2606/2706 31004KT P6SM FEW080
     FM261200 02004KT P6SM BKN070
     FM261800 11007G17KT P6SM BKN060
     FM270000 10010G18KT P6SM VCTS SCT050CB BKN100=

USA.gov is the U.S. government's official web portal to all federal, state and local government web resources and services.